Latest Weather Observations for Low Head

IDT60801

Issued at 8:31 am EDT Tuesday 6 December 2022 (issued every 10 minutes, with the page automatically refreshed every 10 minutes)

About weather observations | Map of weather stations | Latest weather observations for TAS | Other Formats
Station Details ID: 091293 Name: LOW HEAD Lat: -41.05 Lon: 146.79 Height: 3.0 m
Data from the previous 72 hours. | See also: Recent months at Low Head
Date/Time
EDT
Temp
°C
App
Temp
°C
Dew
Point
°C
Rel
Hum
%
Delta-T
°C
Wind Press
QNH
hPa
Press
MSL
hPa
Rain since
9am
mm
Dir  Spd
km/h
Gust
km/h
Spd
kts
Gust
kts
06/08:30am 13.1 4.7 3.5 52 4.3 SSE 37 56 20 30 1012.4 1012.4 0.2
06/08:26am 13.0 5.0 3.7 53 4.2 SSE 35 54 19 29 1012.3 1012.3 0.2
06/08:00am 12.5 5.4 3.5 54 4.0 SE 30 46 16 25 1012.4 1012.4 0.2
06/07:30am 12.2 3.7 3.2 54 4.0 SSE 37 57 20 31 1012.3 1012.3 0.2
06/07:27am 12.0 3.1 3.3 55 3.8 SSE 39 57 21 31 1012.3 1012.3 0.2
06/07:00am 11.4 3.1 4.4 62 3.2 SSE 37 48 20 26 1012.2 1012.2 0.2
06/06:30am 10.9 2.6 4.1 63 3.0 SSE 37 48 20 26 1012.1 1012.1 0.2
06/06:00am 10.8 1.3 4.0 63 3.0 SSE 43 54 23 29 1011.8 1011.8 0.2
06/05:30am 10.6 1.9 3.9 63 3.0 SSE 39 50 21 27 1011.9 1011.9 0.2
06/05:00am 10.5 2.1 3.5 62 3.1 SSE 37 48 20 26 1011.7 1011.7 0.2
06/04:30am 10.5 2.5 3.8 63 3.0 SSE 35 46 19 25 1011.9 1011.9 0.2
06/04:00am 10.3 2.3 3.8 64 2.9 SSE 35 46 19 25 1011.9 1011.9 0.2
06/03:31am 10.4 2.3 3.0 60 3.2 SSE 35 54 19 29 1012.0 1012.0 0.2
06/03:30am 10.2 2.1 3.0 61 3.1 SSE 35 48 19 26 1012.1 1012.1 0.2
06/03:00am 10.6 2.4 2.9 59 3.3 SSE 35 48 19 26 1012.1 1012.1 0.2
06/02:31am 10.7 2.4 2.0 55 3.7 SSE 35 54 19 29 1012.3 1012.3 0.2
06/02:30am 10.7 2.4 2.0 55 3.7 SSE 35 50 19 27 1012.3 1012.3 0.2
06/02:05am 10.8 2.2 2.6 57 3.5 SSE 37 57 20 31 1012.1 1012.1 0.2
06/02:00am 10.6 1.6 2.7 58 3.4 SSE 39 54 21 29 1012.1 1012.1 0.2
06/01:41am 11.0 2.0 2.6 56 3.6 SSE 39 57 21 31 1012.0 1012.0 0.2
06/01:30am 11.0 2.5 3.3 59 3.4 SSE 37 54 20 29 1012.0 1012.0 0.2
06/01:07am 11.0 2.5 3.3 59 3.4 SSE 37 56 20 30 1012.2 1012.2 0.2
06/01:00am 11.2 2.4 3.5 59 3.4 SSE 39 56 21 30 1012.2 1012.2 0.2
06/12:30am 11.2 3.1 3.3 58 3.5 SSE 35 50 19 27 1012.4 1012.4 0.2
06/12:00am 11.5 2.7 3.5 58 3.5 SSE 39 56 21 30 1012.5 1012.5 0.2
 
Date/Time
EDT
Temp
°C
App
Temp
°C
Dew
Point
°C
Rel
Hum
%
Delta-T
°C
Wind Press
QNH
hPa
Press
MSL
hPa
Rain since
9am
mm
Dir  Spd
km/h
Gust
km/h
Spd
kts
Gust
kts
05/11:30pm 11.8 3.1 4.3 60 3.4 SSE 39 52 21 28 1012.5 1012.5 0.2
05/11:00pm 12.2 2.7 3.7 56 3.8 SSE 43 57 23 31 1012.7 1012.7 0.2
05/10:30pm 12.6 3.2 4.3 57 3.8 SSE 43 52 23 28 1012.7 1012.7 0.2
05/10:00pm 12.6 3.4 3.3 53 4.1 SSE 41 57 22 31 1012.9 1012.9 0.2
05/09:36pm 13.0 3.4 4.2 55 4.0 SSE 44 63 24 34 1012.7 1012.7 0.2
05/09:30pm 13.1 3.4 4.0 54 4.1 SSE 44 61 24 33 1012.7 1012.7 0.2
05/09:02pm 13.2 5.2 3.6 52 4.3 SE 35 61 19 33 1012.4 1012.4 0.2
05/09:00pm 13.1 5.1 3.7 53 4.2 SE 35 52 19 28 1012.3 1012.3 0.2
05/08:30pm 13.5 5.2 4.1 53 4.3 SSE 37 57 20 31 1012.0 1012.0 0.2
05/08:06pm 13.8 6.0 4.9 55 4.1 SE 35 54 19 29 1011.6 1011.6 0.2
05/08:00pm 14.1 5.5 4.9 54 4.3 SSE 39 56 21 30 1011.5 1011.5 0.2
05/07:30pm 14.9 7.8 6.2 56 4.2 SE 33 54 18 29 1010.7 1010.7 0.2
05/07:00pm 15.6 7.2 5.8 52 4.7 SSE 39 59 21 32 1010.0 1010.0 0.2
05/06:30pm 16.7 8.2 6.8 52 4.9 SSE 41 63 22 34 1009.3 1009.3 0.2
05/06:00pm 16.1 7.0 6.8 54 4.6 SSE 44 65 24 35 1008.9 1008.9 0.2
05/05:31pm 16.2 5.8 7.9 58 4.2 SSE 52 70 28 38 1007.9 1007.9 0.2
05/05:30pm 16.0 5.1 7.2 56 4.4 SSE 54 70 29 38 1007.9 1007.9 0.2
05/05:09pm 16.4 5.7 8.1 58 4.2 SSE 54 72 29 39 1007.4 1007.4 0.2
05/05:00pm 16.4 5.2 7.6 56 4.4 SSE 56 72 30 39 1007.2 1007.2 0.2
05/04:30pm 16.2 5.8 7.9 58 4.2 SSE 52 72 28 39 1007.0 1007.0 0.2
05/04:01pm 16.5 6.2 8.2 58 4.2 SSE 52 72 28 39 1007.0 1007.0 0.2
05/04:00pm 16.4 6.1 8.1 58 4.2 SSE 52 69 28 37 1006.9 1006.9 0.2
05/03:35pm 16.9 7.3 8.1 56 4.5 SSE 48 67 26 36 1006.6 1006.6 0.2
05/03:30pm 16.9 7.0 8.1 56 4.5 SSE 50 67 27 36 1006.8 1006.8 0.2
05/03:00pm 16.9 8.0 9.1 60 4.0 SE 46 67 25 36 1006.5 1006.5 0.2
05/02:30pm 18.9 10.2 9.9 56 4.8 SSE 46 65 25 35 1006.1 1006.1 0.2
05/02:00pm 17.9 7.6 9.5 58 4.4 SSE 54 72 29 39 1005.6 1005.6 0.2
05/01:30pm 17.7 7.1 9.8 60 4.2 SSE 56 76 30 41 1005.6 1005.6 0.2
05/01:00pm 17.4 5.9 10.1 62 3.9 SSE 61 80 33 43 1005.2 1005.2 0.2
05/12:30pm 17.0 7.1 9.7 62 3.8 SSE 52 70 28 38 1005.2 1005.2 0.2
05/12:01pm 18.0 8.7 10.4 61 4.1 SSE 50 69 27 37 1004.7 1004.7 0.2
05/12:00pm 18.0 8.3 10.4 61 4.1 SSE 52 69 28 37 1004.6 1004.6 0.2
05/11:30am 17.7 8.1 10.8 64 3.7 SSE 52 74 28 40 1004.6 1004.6 0.2
05/11:04am 17.5 9.4 10.9 65 3.5 SSE 44 63 24 34 1004.6 1004.6 0.2
05/11:00am 17.5 8.4 11.3 67 3.4 SSE 50 63 27 34 1004.5 1004.5 0.2
05/10:30am 17.8 11.3 11.8 68 3.3 SSE 37 69 20 37 1004.2 1004.2 0.2
05/10:00am 18.4 10.9 12.2 67 3.4 SSE 43 67 23 36 1003.9 1003.9 0.2
05/09:30am 18.7 10.6 12.0 65 3.7 SSE 46 65 25 35 1003.6 1003.6 0.2
05/09:09am 18.7 12.2 12.9 69 3.3 SE 39 57 21 31 1003.6 1003.6 0.0
05/09:00am 18.4 11.4 12.6 69 3.2 SE 41 57 22 31 1003.6 1003.6 0.0
05/08:44am 18.5 12.3 12.7 69 3.2 SSE 37 56 20 30 1003.7 1003.7 0.0
05/08:30am 18.3 11.7 12.5 69 3.2 SSE 39 56 21 30 1003.6 1003.6 0.0
05/08:14am 18.1 11.6 12.8 71 3.0 SSE 39 57 21 31 1003.3 1003.3 0.0
05/08:00am 17.7 11.9 12.8 73 2.7 SSE 35 52 19 28 1003.2 1003.2 0.0
05/07:53am 17.6 11.4 12.7 73 2.7 SSE 37 56 20 30 1003.2 1003.2 0.0
05/07:30am 17.0 11.3 12.9 77 2.3 SE 35 48 19 26 1002.9 1002.9 0.0
05/07:00am 16.2 12.0 13.5 84 1.5 SSE 28 39 15 21 1002.9 1002.9 0.0
05/06:30am 15.9 12.9 13.7 87 1.2 SE 22 32 12 17 1003.0 1003.0 0.0
05/06:00am 15.2 13.1 13.6 90 0.9 SSE 17 22 9 12 1002.9 1002.9 0.0
05/05:30am 15.0 12.5 13.4 90 0.9 SSE 19 22 10 12 1002.4 1002.4 0.0
05/05:00am 15.1 13.4 13.5 90 0.9 SSE 15 17 8 9 1001.5 1001.5 0.0
05/04:30am 16.0 16.3 13.3 84 1.5 SSE 4 7 2 4 1001.6 1001.6 0.0
05/04:00am 15.9 15.9 13.7 87 1.2 SSE 6 9 3 5 1001.9 1001.9 0.0
05/03:30am 16.0 15.2 14.0 88 1.1 S 11 15 6 8 1001.6 1001.6 0.0
05/03:00am 16.7 15.4 13.8 83 1.6 SSE 13 20 7 11 1001.5 1001.5 0.0
05/02:30am 17.1 14.0 14.6 85 1.4 E 24 28 13 15 1001.3 1001.3 0.0
05/02:00am 17.3 14.8 15.1 87 1.3 ENE 22 26 12 14 1002.7 1002.7 0.0
05/01:57am 17.2 15.0 15.0 87 1.3 ENE 20 24 11 13 1002.9 1002.9 0.0
05/01:30am 17.7 17.4 14.4 81 1.9 E 9 11 5 6 1004.9 1004.9 0.0
05/01:00am 17.7 16.1 13.8 78 2.2 ESE 15 20 8 11 1004.4 1004.4 0.0
05/12:30am 17.2 15.3 14.1 82 1.8 SSE 17 22 9 12 1005.5 1005.5 0.0
05/12:00am 17.4 16.7 15.4 88 1.2 E 13 17 7 9 1004.9 1004.9 0.0
 
Date/Time
EDT
Temp
°C
App
Temp
°C
Dew
Point
°C
Rel
Hum
%
Delta-T
°C
Wind Press
QNH
hPa
Press
MSL
hPa
Rain since
9am
mm
Dir  Spd
km/h
Gust
km/h
Spd
kts
Gust
kts
04/11:30pm 17.5 17.4 15.0 85 1.5 N 9 13 5 7 1005.9 1005.9 0.0
04/11:00pm 18.6 16.0 13.7 73 2.8 ENE 20 26 11 14 1005.3 1005.3 0.0
04/10:30pm 18.4 15.1 13.9 75 2.6 ENE 24 28 13 15 1005.3 1005.3 0.0
04/10:00pm 18.3 15.1 14.2 77 2.4 ENE 24 28 13 15 1005.9 1005.9 0.0
04/09:30pm 18.3 15.5 14.4 78 2.2 ENE 22 28 12 15 1006.3 1006.3 0.0
04/09:00pm 18.5 14.1 14.2 76 2.5 ENE 30 35 16 19 1006.1 1006.1 0.0
04/08:30pm 18.5 14.3 14.6 78 2.3 ENE 30 35 16 19 1006.3 1006.3 0.0
04/08:00pm 18.2 14.4 14.7 80 2.0 NE 28 33 15 18 1006.4 1006.4 0.0
04/07:30pm 18.0 15.5 15.1 83 1.7 NE 22 24 12 13 1006.5 1006.5 0.0
04/07:00pm 18.2 16.0 14.9 81 1.9 NE 20 24 11 13 1006.9 1006.9 0.0
04/06:30pm 18.4 15.8 14.9 80 2.0 NE 22 26 12 14 1006.6 1006.6 0.0
04/06:00pm 18.3 16.2 14.8 80 2.0 NE 19 20 10 11 1007.1 1007.1 0.0
04/05:30pm 18.9 18.2 15.4 80 2.1 NE 13 17 7 9 1007.3 1007.3 0.0
04/05:00pm 18.7 17.4 14.8 78 2.3 NE 15 17 8 9 1007.6 1007.6 0.0
04/04:30pm 19.2 17.9 14.9 76 2.5 NE 15 17 8 9 1007.9 1007.9 0.0
04/04:00pm 19.8 18.3 15.2 75 2.7 NE 17 19 9 10 1008.1 1008.1 0.0
04/03:30pm 19.5 16.9 15.0 75 2.6 NE 22 26 12 14 1008.5 1008.5 0.0
04/03:00pm 18.9 16.3 15.0 78 2.3 NNE 22 26 12 14 1008.7 1008.7 0.0
04/02:30pm 19.0 17.7 14.7 76 2.5 NNE 15 19 8 10 1009.5 1009.5 0.0
04/02:00pm 18.4 16.2 14.3 77 2.4 NNE 19 20 10 11 1009.9 1009.9 0.0
04/01:30pm 17.9 15.4 14.2 79 2.1 NNE 20 22 11 12 1010.1 1010.1 0.0
04/01:00pm 17.9 15.6 14.0 78 2.2 NNE 19 20 10 11 1010.3 1010.3 0.0
04/12:30pm 17.8 16.0 14.5 81 1.9 NNE 17 19 9 10 1010.7 1010.7 0.0
04/12:00pm 16.9 15.3 13.8 82 1.8 NNE 15 17 8 9 1011.2 1011.2 0.0
04/11:30am 16.7 15.5 14.0 84 1.5 NNE 13 15 7 8 1011.5 1011.5 0.0
04/11:00am 16.0 13.9 13.5 85 1.4 N 17 19 9 10 1011.5 1011.5 0.0
04/10:30am 16.4 14.0 13.9 85 1.4 NNE 19 22 10 12 1011.8 1011.8 0.0
04/10:00am 16.6 13.2 13.7 83 1.6 S 24 26 13 14 1011.9 1011.9 0.0
04/09:30am 16.0 12.5 13.3 84 1.5 S 24 26 13 14 1012.5 1012.5 0.0
04/09:00am 15.9 13.4 13.4 85 1.4 S 19 20 10 11 1012.7 1012.7 0.0
04/08:30am 15.6 13.1 13.4 87 1.2 S 19 24 10 13 1012.7 1012.7 0.0
04/08:00am 15.0 13.4 12.9 87 1.2 SSE 13 17 7 9 1012.7 1012.7 0.0
04/07:30am 14.6 13.4 12.8 89 1.0 SSE 11 15 6 8 1012.7 1012.7 0.0
04/07:00am 14.2 12.9 12.4 89 1.0 SSW 11 13 6 7 1012.7 1012.7 0.0
04/06:30am 14.2 13.8 12.4 89 1.0 SSE 6 9 3 5 1012.7 1012.7 0.0
04/06:00am 14.0 14.2 12.0 88 1.1 W 2 6 1 3 1012.6 1012.6 0.0
04/05:30am 13.9 13.4 12.1 89 1.0 WNW 6 7 3 4 1012.6 1012.6 0.0
04/05:00am 14.0 12.9 12.0 88 1.1 WNW 9 13 5 7 1012.6 1012.6 0.0
04/04:30am 14.4 13.1 12.6 89 1.0 NW 11 15 6 8 1012.5 1012.5 0.0
04/04:00am 14.5 13.6 12.5 88 1.1 N 9 13 5 7 1012.6 1012.6 0.0
04/03:30am 14.6 14.1 12.5 87 1.1 NW 7 13 4 7 1013.0 1013.0 0.0
04/03:00am 14.8 14.3 12.8 88 1.1 WNW 7 9 4 5 1013.1 1013.1 0.0
04/02:30am 14.5 14.1 12.5 88 1.1 E 6 7 3 4 1012.8 1012.8 0.0
04/02:00am 14.7 14.8 12.7 88 1.1 SW 4 7 2 4 1013.1 1013.1 0.0
04/01:30am 15.1 14.7 13.1 88 1.1 NW 7 9 4 5 1013.8 1013.8 0.0
04/01:00am 15.1 14.7 13.1 88 1.1 N 7 11 4 6 1013.8 1013.8 0.0
04/12:30am 15.3 15.2 13.3 88 1.1 N 6 7 3 4 1014.0 1014.0 0.0
04/12:00am 15.3 16.3 13.3 88 1.1 CALM 0 0 0 0 1014.1 1014.1 0.0
 
Date/Time
EDT
Temp
°C
App
Temp
°C
Dew
Point
°C
Rel
Hum
%
Delta-T
°C
Wind Press
QNH
hPa
Press
MSL
hPa
Rain since
9am
mm
Dir  Spd
km/h
Gust
km/h
Spd
kts
Gust
kts
03/11:30pm 15.4 16.5 13.4 88 1.1 CALM 0 0 0 0 1014.2 1014.2 0.0
03/11:00pm 15.5 14.9 13.5 88 1.1 N 9 11 5 6 1014.3 1014.3 0.0
03/10:30pm 15.6 15.5 13.8 89 1.0 WNW 7 7 4 4 1014.4 1014.4 0.0
03/10:00pm 15.5 15.0 13.9 90 0.9 WNW 9 9 5 5 1014.4 1014.4 0.0
03/09:30pm 15.7 15.7 14.1 90 0.9 NNW 7 9 4 5 1014.2 1014.2 0.0
03/09:00pm 15.8 15.7 14.0 89 1.0 NNW 7 9 4 5 1014.0 1014.0 0.0
03/08:30pm 16.2 15.8 14.0 87 1.2 N 9 11 5 6 1013.9 1013.9 0.0
03/08:00pm 16.6 16.6 14.1 85 1.4 NNW 7 9 4 5 1013.9 1013.9 0.0
03/07:30pm 16.9 16.4 13.8 82 1.8 NNW 9 11 5 6 1013.8 1013.8 0.0
03/07:00pm 17.2 17.0 13.7 80 2.0 NW 7 9 4 5 1013.8 1013.8 0.0
03/06:30pm 17.4 16.9 13.7 79 2.1 NNW 9 9 5 5 1013.7 1013.7 0.0
03/06:00pm 17.5 16.9 13.4 77 2.3 NW 9 11 5 6 1013.7 1013.7 0.0
03/05:30pm 17.9 17.0 13.6 76 2.4 NNW 11 13 6 7 1013.8 1013.8 0.0
03/05:00pm 18.5 17.2 13.8 74 2.7 N 13 15 7 8 1014.0 1014.0 0.0
03/04:30pm 18.4 16.9 13.1 71 3.0 N 13 17 7 9 1014.3 1014.3 0.0
03/04:00pm 18.4 16.8 12.8 70 3.1 N 13 15 7 8 1014.6 1014.6 0.0
03/03:30pm 19.0 18.0 13.4 70 3.2 N 11 13 6 7 1014.9 1014.9 0.0
03/03:00pm 18.5 17.3 12.7 69 3.2 N 11 13 6 7 1015.3 1015.3 0.0
03/02:30pm 18.6 17.0 12.8 69 3.3 N 13 15 7 8 1015.5 1015.5 0.0
03/02:00pm 18.1 16.7 12.3 69 3.2 N 11 13 6 7 1015.8 1015.8 0.0
03/01:30pm 18.2 16.9 12.4 69 3.2 N 11 13 6 7 1016.1 1016.1 0.0
03/01:00pm 19.0 17.4 12.7 67 3.5 N 13 13 7 7 1016.4 1016.4 0.0
03/12:30pm 18.4 16.7 12.6 69 3.2 N 13 13 7 7 1016.5 1016.5 0.0
03/12:00pm 18.6 17.8 12.8 69 3.2 N 9 11 5 6 1016.8 1016.8 0.0
03/11:30am 18.0 17.0 12.2 69 3.2 NNW 9 9 5 5 1017.1 1017.1 0.0
03/11:00am 17.3 16.7 12.4 73 2.7 NNW 7 7 4 4 1017.3 1017.3 0.0
03/10:30am 17.2 16.6 12.3 73 2.7 N 7 9 4 5 1017.4 1017.4 0.0
03/10:00am 16.4 15.7 11.3 72 2.7 NNW 6 7 3 4 1017.5 1017.5 0.0
03/09:30am 15.9 15.0 12.5 80 1.9 SSW 9 11 5 6 1017.6 1017.6 0.0
03/09:00am 15.3 13.7 12.8 85 1.4 S 13 13 7 7 1017.7 1017.7 0.0

Other formats

Comma delimited format used in spreadsheet applications
http://www.bom.gov.au/fwo/IDT60801/IDT60801.95964.axf

JavaScript Object Notation format (JSON) in row-major order
http://www.bom.gov.au/fwo/IDT60801/IDT60801.95964.json

Data quality

Most of these data are generated automatically and are frequently updated. Quality checks on data are not normally performed. It is possible for incorrect values to appear. Refer to information at About Latest Weather Observations and please check the disclaimer before using these data.